RYR14L LFMU-EGGW
Flight info
| Callsign | RYR14L |
|---|---|
| Flight time | 1h 42m |
| Altitude | 36000 |
| Route | FJR DCT NG DCT MOLEN DCT MTL DCT ETREK DCT MADOT DCT MOPEM DCT CACHI DCT AVLON DCT OKRIX DCT BRY DCT CLM DCT KOPOR DCT PIREG DCT SOSUN DCT SUBIP UM733 UNDUG |
| Aircraft | B738/M-SDE2E3FGHIRWXY/LB1 |
Departure
| Time | 2026-04-22 12:30 |
|---|---|
| Airport | Béziers Vias airport (LFMU) |
Arrival
| Time | 2026-04-22 14:12 |
|---|---|
| Airport | London Luton Airport (EGGW) |
| Time | Latitude | Longitude | Altitude | Speed | Heading |
|---|---|---|---|---|---|
| 2026-04-22 12:04 | 43.32153 | 3.35268 | 52 ft | 0 kts | 184° |
| 2026-04-22 12:23 | 43.32167 | 3.35268 | 52 ft | 3 kts | 159° |
| 2026-04-22 12:23 | 43.32181 | 3.35251 | 51 ft | 3 kts | 103° |
| 2026-04-22 12:24 | 43.32183 | 3.35225 | 55 ft | 1 kts | 94° |
| 2026-04-22 12:24 | 43.32184 | 3.35220 | 54 ft | 1 kts | 94° |
| 2026-04-22 12:26 | 43.32184 | 3.35222 | 54 ft | 1 kts | 94° |
| 2026-04-22 12:26 | 43.32181 | 3.35279 | 50 ft | 8 kts | 90° |
| 2026-04-22 12:26 | 43.32220 | 3.35323 | 57 ft | 8 kts | 14° |
| 2026-04-22 12:26 | 43.32273 | 3.35332 | 56 ft | 8 kts | 4° |
| 2026-04-22 12:27 | 43.32326 | 3.35317 | 52 ft | 9 kts | 324° |
| 2026-04-22 12:27 | 43.32351 | 3.35234 | 56 ft | 10 kts | 276° |
| 2026-04-22 12:27 | 43.32357 | 3.35125 | 54 ft | 13 kts | 273° |
| 2026-04-22 12:27 | 43.32365 | 3.34983 | 57 ft | 17 kts | 275° |
| 2026-04-22 12:28 | 43.32376 | 3.34803 | 58 ft | 21 kts | 275° |
| 2026-04-22 12:28 | 43.32388 | 3.34600 | 58 ft | 21 kts | 275° |
| 2026-04-22 12:28 | 43.32400 | 3.34403 | 60 ft | 20 kts | 274° |
| 2026-04-22 12:28 | 43.32389 | 3.34265 | 59 ft | 13 kts | 247° |
| 2026-04-22 12:29 | 43.32405 | 3.34200 | 60 ft | 6 kts | 13° |
| 2026-04-22 12:29 | 43.32412 | 3.34254 | 58 ft | 7 kts | 100° |
| 2026-04-22 12:29 | 43.32396 | 3.34417 | 53 ft | 46 kts | 95° |
| 2026-04-22 12:29 | 43.32352 | 3.35225 | 54 ft | 119 kts | 94° |
| 2026-04-22 12:30 | 43.32170 | 3.38095 | 1048 ft | 161 kts | 96° |
| 2026-04-22 12:30 | 43.32290 | 3.39622 | 1849 ft | 173 kts | 65° |
| 2026-04-22 12:30 | 43.33096 | 3.41049 | 2331 ft | 205 kts | 54° |
| 2026-04-22 12:31 | 43.34069 | 3.42651 | 2728 ft | 228 kts | 54° |
| 2026-04-22 12:31 | 43.35148 | 3.44425 | 3206 ft | 253 kts | 53° |
| 2026-04-22 12:31 | 43.36288 | 3.46297 | 4177 ft | 255 kts | 52° |
| 2026-04-22 12:31 | 43.37433 | 3.48185 | 5090 ft | 261 kts | 52° |
| 2026-04-22 12:32 | 43.38614 | 3.50142 | 5862 ft | 271 kts | 49° |
| 2026-04-22 12:32 | 43.41088 | 3.54258 | 7488 ft | 282 kts | 47° |
| 2026-04-22 12:32 | 43.42346 | 3.56364 | 8264 ft | 289 kts | 47° |
| 2026-04-22 12:33 | 43.43638 | 3.58528 | 9047 ft | 295 kts | 47° |
| 2026-04-22 12:33 | 43.44790 | 3.60905 | 9875 ft | 304 kts | 57° |
| 2026-04-22 12:33 | 43.45756 | 3.63539 | 10552 ft | 316 kts | 60° |
| 2026-04-22 12:33 | 43.46739 | 3.66381 | 10751 ft | 343 kts | 61° |
| 2026-04-22 12:34 | 43.47795 | 3.69442 | 11099 ft | 361 kts | 61° |
| 2026-04-22 12:34 | 43.48891 | 3.72586 | 11781 ft | 368 kts | 61° |
| 2026-04-22 12:34 | 43.50017 | 3.75777 | 12603 ft | 372 kts | 60° |
| 2026-04-22 12:34 | 43.51162 | 3.78991 | 13355 ft | 377 kts | 60° |
| 2026-04-22 12:35 | 43.52332 | 3.82257 | 14106 ft | 382 kts | 60° |
| 2026-04-22 12:35 | 43.53512 | 3.85542 | 14836 ft | 385 kts | 60° |
| 2026-04-22 12:35 | 43.54704 | 3.88860 | 15588 ft | 387 kts | 60° |
| 2026-04-22 12:35 | 43.55903 | 3.92202 | 16302 ft | 390 kts | 60° |
| 2026-04-22 12:36 | 43.57106 | 3.95563 | 17006 ft | 393 kts | 60° |
| 2026-04-22 12:36 | 43.58484 | 3.98820 | 17670 ft | 393 kts | 48° |
| 2026-04-22 12:36 | 43.60278 | 4.01661 | 18361 ft | 393 kts | 44° |
| 2026-04-22 12:36 | 43.62141 | 4.04428 | 18949 ft | 396 kts | 43° |
| 2026-04-22 12:37 | 43.64032 | 4.07226 | 19528 ft | 400 kts | 44° |
| 2026-04-22 12:37 | 43.65924 | 4.10056 | 20082 ft | 404 kts | 44° |
| 2026-04-22 12:37 | 43.67826 | 4.12939 | 20652 ft | 407 kts | 44° |
| 2026-04-22 12:37 | 43.69727 | 4.15851 | 21212 ft | 411 kts | 45° |
| 2026-04-22 12:38 | 43.71645 | 4.18805 | 21759 ft | 414 kts | 45° |
| 2026-04-22 12:38 | 43.73576 | 4.21790 | 22297 ft | 418 kts | 45° |
| 2026-04-22 12:38 | 43.75519 | 4.24798 | 22832 ft | 422 kts | 45° |
| 2026-04-22 12:38 | 43.77454 | 4.27796 | 23359 ft | 424 kts | 45° |
| 2026-04-22 12:39 | 43.79446 | 4.30884 | 23881 ft | 427 kts | 45° |
| 2026-04-22 12:39 | 43.83410 | 4.37019 | 24749 ft | 432 kts | 43° |
| 2026-04-22 12:39 | 43.85676 | 4.39799 | 25180 ft | 430 kts | 33° |
| 2026-04-22 12:40 | 43.88172 | 4.41966 | 25610 ft | 428 kts | 24° |
| 2026-04-22 12:40 | 43.90935 | 4.43600 | 26032 ft | 427 kts | 18° |
| 2026-04-22 12:40 | 43.93692 | 4.45032 | 26415 ft | 430 kts | 17° |
| 2026-04-22 12:40 | 43.96508 | 4.46484 | 26811 ft | 433 kts | 17° |
| 2026-04-22 12:41 | 43.99373 | 4.47989 | 27202 ft | 435 kts | 18° |
| 2026-04-22 12:41 | 44.02163 | 4.49487 | 27573 ft | 438 kts | 18° |
| 2026-04-22 12:41 | 44.05013 | 4.51032 | 27947 ft | 440 kts | 18° |
| 2026-04-22 12:41 | 44.07871 | 4.52575 | 28314 ft | 443 kts | 18° |
| 2026-04-22 12:42 | 44.10761 | 4.54113 | 28667 ft | 445 kts | 18° |
| 2026-04-22 12:42 | 44.13660 | 4.55647 | 29035 ft | 447 kts | 17° |
| 2026-04-22 12:42 | 44.16583 | 4.57193 | 29348 ft | 450 kts | 18° |
| 2026-04-22 12:42 | 44.19521 | 4.58750 | 29746 ft | 451 kts | 18° |
| 2026-04-22 12:43 | 44.22444 | 4.60303 | 30240 ft | 449 kts | 18° |
| 2026-04-22 12:43 | 44.25350 | 4.61852 | 30703 ft | 447 kts | 17° |
| 2026-04-22 12:43 | 44.28245 | 4.63397 | 31182 ft | 443 kts | 17° |
| 2026-04-22 12:43 | 44.31121 | 4.64933 | 31629 ft | 441 kts | 17° |
| 2026-04-22 12:44 | 44.33978 | 4.66459 | 32040 ft | 439 kts | 17° |
| 2026-04-22 12:44 | 44.36827 | 4.67983 | 32484 ft | 437 kts | 17° |
| 2026-04-22 12:44 | 44.39649 | 4.69493 | 32927 ft | 434 kts | 16° |
| 2026-04-22 12:44 | 44.42466 | 4.71002 | 33385 ft | 432 kts | 16° |
| 2026-04-22 12:45 | 44.45274 | 4.72506 | 33910 ft | 430 kts | 16° |
| 2026-04-22 12:45 | 44.48051 | 4.73997 | 34433 ft | 426 kts | 16° |
| 2026-04-22 12:45 | 44.50811 | 4.75483 | 34944 ft | 423 kts | 16° |
| 2026-04-22 12:45 | 44.53593 | 4.76718 | 35356 ft | 416 kts | 7° |
| 2026-04-22 12:46 | 44.56426 | 4.77267 | 35652 ft | 409 kts | 359° |
| 2026-04-22 12:46 | 44.59255 | 4.77250 | 35950 ft | 404 kts | 351° |
| 2026-04-22 12:46 | 44.62021 | 4.76701 | 36121 ft | 404 kts | 348° |
| 2026-04-22 12:47 | 44.67606 | 4.75412 | 36098 ft | 407 kts | 348° |
| 2026-04-22 12:47 | 44.73175 | 4.74133 | 36088 ft | 401 kts | 348° |
| 2026-04-22 12:48 | 44.78661 | 4.72901 | 36108 ft | 399 kts | 348° |
| 2026-04-22 12:48 | 44.84151 | 4.71677 | 36090 ft | 400 kts | 348° |
| 2026-04-22 12:49 | 44.88714 | 4.70660 | 36104 ft | 399 kts | 348° |
| 2026-04-22 12:49 | 44.94190 | 4.69438 | 36096 ft | 399 kts | 348° |
| 2026-04-22 12:50 | 44.99663 | 4.68213 | 36091 ft | 399 kts | 348° |
| 2026-04-22 12:50 | 45.05142 | 4.66983 | 36086 ft | 399 kts | 348° |
| 2026-04-22 12:51 | 45.10633 | 4.65747 | 36096 ft | 399 kts | 348° |
| 2026-04-22 12:51 | 45.16120 | 4.64511 | 36080 ft | 400 kts | 348° |
| 2026-04-22 12:52 | 45.21613 | 4.63272 | 36086 ft | 400 kts | 347° |
| 2026-04-22 12:52 | 45.27114 | 4.62018 | 36067 ft | 400 kts | 348° |
| 2026-04-22 12:53 | 45.32564 | 4.60768 | 36082 ft | 399 kts | 348° |
| 2026-04-22 12:53 | 45.38049 | 4.59507 | 36069 ft | 399 kts | 348° |
| 2026-04-22 12:54 | 45.43524 | 4.58246 | 36070 ft | 399 kts | 348° |
| 2026-04-22 12:54 | 45.48993 | 4.56984 | 36090 ft | 398 kts | 347° |
| 2026-04-22 12:55 | 45.54462 | 4.55719 | 36081 ft | 397 kts | 347° |
| 2026-04-22 12:55 | 45.59903 | 4.54457 | 36081 ft | 396 kts | 347° |
| 2026-04-22 12:56 | 45.65341 | 4.53191 | 36075 ft | 396 kts | 347° |
| 2026-04-22 12:56 | 45.70767 | 4.51928 | 36091 ft | 395 kts | 347° |
| 2026-04-22 12:57 | 45.76188 | 4.50668 | 36083 ft | 394 kts | 347° |
| 2026-04-22 12:57 | 45.81607 | 4.49413 | 36077 ft | 394 kts | 347° |
| 2026-04-22 12:58 | 45.87014 | 4.48155 | 36094 ft | 394 kts | 347° |
| 2026-04-22 12:58 | 45.92416 | 4.46893 | 36106 ft | 394 kts | 347° |
| 2026-04-22 12:59 | 45.97835 | 4.45624 | 36089 ft | 394 kts | 347° |
| 2026-04-22 12:59 | 46.03239 | 4.44354 | 36094 ft | 394 kts | 347° |
| 2026-04-22 13:00 | 46.08642 | 4.43082 | 36119 ft | 393 kts | 347° |
| 2026-04-22 13:00 | 46.14050 | 4.41807 | 36102 ft | 394 kts | 346° |
| 2026-04-22 13:01 | 46.19465 | 4.40525 | 36096 ft | 395 kts | 347° |
| 2026-04-22 13:01 | 46.24881 | 4.39242 | 36077 ft | 395 kts | 347° |
| 2026-04-22 13:02 | 46.30276 | 4.37846 | 36101 ft | 393 kts | 343° |
| 2026-04-22 13:02 | 46.35596 | 4.36004 | 36104 ft | 392 kts | 342° |
| 2026-04-22 13:03 | 46.40887 | 4.34096 | 36106 ft | 392 kts | 342° |
| 2026-04-22 13:03 | 46.46159 | 4.32220 | 36103 ft | 392 kts | 342° |
| 2026-04-22 13:04 | 46.51467 | 4.30347 | 36107 ft | 393 kts | 342° |
| 2026-04-22 13:04 | 46.56805 | 4.28467 | 36109 ft | 393 kts | 342° |
| 2026-04-22 13:05 | 46.62121 | 4.26593 | 36104 ft | 393 kts | 342° |
| 2026-04-22 13:05 | 46.67401 | 4.24727 | 36110 ft | 393 kts | 342° |
| 2026-04-22 13:06 | 46.72711 | 4.22846 | 36111 ft | 393 kts | 342° |
| 2026-04-22 13:06 | 46.78031 | 4.20957 | 36108 ft | 393 kts | 342° |
| 2026-04-22 13:07 | 46.83340 | 4.19069 | 36112 ft | 393 kts | 342° |
| 2026-04-22 13:07 | 46.88653 | 4.17174 | 36106 ft | 393 kts | 342° |
| 2026-04-22 13:08 | 46.93962 | 4.15277 | 36115 ft | 393 kts | 342° |
| 2026-04-22 13:08 | 46.99271 | 4.13374 | 36109 ft | 393 kts | 342° |
| 2026-04-22 13:09 | 47.04587 | 4.11468 | 36101 ft | 393 kts | 342° |
| 2026-04-22 13:09 | 47.09757 | 4.09055 | 36108 ft | 388 kts | 335° |
| 2026-04-22 13:10 | 47.14748 | 4.06047 | 36112 ft | 388 kts | 334° |
| 2026-04-22 13:10 | 47.19737 | 4.03029 | 36120 ft | 388 kts | 335° |
| 2026-04-22 13:11 | 47.24748 | 4.00031 | 36121 ft | 388 kts | 335° |
| 2026-04-22 13:11 | 47.29759 | 3.97043 | 36112 ft | 389 kts | 335° |
| 2026-04-22 13:12 | 47.34773 | 3.94051 | 36126 ft | 389 kts | 335° |
| 2026-04-22 13:12 | 47.39764 | 3.91066 | 36125 ft | 389 kts | 335° |
| 2026-04-22 13:13 | 47.44781 | 3.88058 | 36128 ft | 389 kts | 335° |
| 2026-04-22 13:13 | 47.49795 | 3.85044 | 36130 ft | 389 kts | 334° |
| 2026-04-22 13:14 | 47.54808 | 3.82029 | 36144 ft | 389 kts | 335° |
| 2026-04-22 13:14 | 47.59862 | 3.78996 | 36136 ft | 389 kts | 335° |
| 2026-04-22 13:15 | 47.64835 | 3.76021 | 36128 ft | 388 kts | 335° |
| 2026-04-22 13:15 | 47.69845 | 3.73012 | 36136 ft | 388 kts | 335° |
| 2026-04-22 13:16 | 47.74840 | 3.70003 | 36153 ft | 387 kts | 335° |
| 2026-04-22 13:16 | 47.79830 | 3.66988 | 36139 ft | 387 kts | 335° |
| 2026-04-22 13:17 | 47.84813 | 3.63971 | 36146 ft | 387 kts | 335° |
| 2026-04-22 13:17 | 47.89798 | 3.60946 | 36140 ft | 386 kts | 335° |
| 2026-04-22 13:18 | 47.94767 | 3.57926 | 36144 ft | 386 kts | 335° |
| 2026-04-22 13:18 | 47.99730 | 3.54898 | 36150 ft | 386 kts | 335° |
| 2026-04-22 13:19 | 48.04693 | 3.51852 | 36150 ft | 385 kts | 335° |
| 2026-04-22 13:19 | 48.09658 | 3.48792 | 36156 ft | 385 kts | 335° |
| 2026-04-22 13:20 | 48.14614 | 3.45732 | 36157 ft | 385 kts | 335° |
| 2026-04-22 13:20 | 48.19574 | 3.42662 | 36148 ft | 386 kts | 335° |
| 2026-04-22 13:21 | 48.24536 | 3.39585 | 36154 ft | 386 kts | 335° |
| 2026-04-22 13:21 | 48.29498 | 3.36499 | 36170 ft | 386 kts | 335° |
| 2026-04-22 13:22 | 48.34461 | 3.33404 | 36168 ft | 387 kts | 335° |
| 2026-04-22 13:22 | 48.39451 | 3.30291 | 36194 ft | 388 kts | 335° |
| 2026-04-22 13:23 | 48.44409 | 3.27170 | 36177 ft | 389 kts | 335° |
| 2026-04-22 13:23 | 48.49401 | 3.23988 | 36174 ft | 390 kts | 335° |
| 2026-04-22 13:24 | 48.54395 | 3.20795 | 36183 ft | 390 kts | 335° |
| 2026-04-22 13:24 | 48.59396 | 3.17593 | 36180 ft | 391 kts | 335° |
| 2026-04-22 13:25 | 48.64405 | 3.14378 | 36186 ft | 391 kts | 335° |
| 2026-04-22 13:25 | 48.69420 | 3.11152 | 36182 ft | 391 kts | 335° |
| 2026-04-22 13:26 | 48.74426 | 3.07925 | 36195 ft | 391 kts | 335° |
| 2026-04-22 13:26 | 48.79434 | 3.04687 | 36179 ft | 391 kts | 334° |
| 2026-04-22 13:27 | 48.84433 | 3.01436 | 36194 ft | 391 kts | 333° |
| 2026-04-22 13:27 | 48.89182 | 2.97498 | 36202 ft | 389 kts | 328° |
| 2026-04-22 13:28 | 48.93852 | 2.93327 | 36206 ft | 389 kts | 328° |
| 2026-04-22 13:28 | 48.98530 | 2.89166 | 36204 ft | 389 kts | 328° |
| 2026-04-22 13:29 | 49.03215 | 2.85029 | 36203 ft | 389 kts | 328° |
| 2026-04-22 13:29 | 49.07905 | 2.80893 | 36220 ft | 390 kts | 329° |
| 2026-04-22 13:30 | 49.12600 | 2.76747 | 36211 ft | 390 kts | 329° |
| 2026-04-22 13:30 | 49.17266 | 2.72617 | 36214 ft | 390 kts | 329° |
| 2026-04-22 13:31 | 49.21960 | 2.68452 | 36220 ft | 390 kts | 329° |
| 2026-04-22 13:31 | 49.26660 | 2.64274 | 36205 ft | 390 kts | 328° |
| 2026-04-22 13:32 | 49.31352 | 2.60092 | 36217 ft | 391 kts | 328° |
| 2026-04-22 13:32 | 49.36048 | 2.55895 | 36229 ft | 391 kts | 328° |
| 2026-04-22 13:33 | 49.40745 | 2.51687 | 36230 ft | 392 kts | 328° |
| 2026-04-22 13:33 | 49.45451 | 2.47462 | 36231 ft | 392 kts | 328° |
| 2026-04-22 13:34 | 49.50161 | 2.43225 | 36252 ft | 392 kts | 328° |
| 2026-04-22 13:34 | 49.54445 | 2.38054 | 36245 ft | 392 kts | 318° |
| 2026-04-22 13:35 | 49.58491 | 2.32409 | 36233 ft | 392 kts | 318° |
| 2026-04-22 13:35 | 49.62536 | 2.26777 | 36233 ft | 392 kts | 318° |
| 2026-04-22 13:36 | 49.65908 | 2.22096 | 36224 ft | 392 kts | 317° |
| 2026-04-22 13:36 | 49.69966 | 2.16459 | 36235 ft | 392 kts | 317° |
| 2026-04-22 13:37 | 49.74021 | 2.10816 | 36243 ft | 393 kts | 318° |
| 2026-04-22 13:37 | 49.78763 | 2.04196 | 36238 ft | 393 kts | 318° |
| 2026-04-22 13:38 | 49.82139 | 1.99472 | 36237 ft | 394 kts | 318° |
| 2026-04-22 13:38 | 49.87866 | 1.90397 | 36248 ft | 394 kts | 305° |
| 2026-04-22 13:39 | 49.90374 | 1.82842 | 36248 ft | 396 kts | 294° |
| 2026-04-22 13:39 | 49.92433 | 1.74918 | 36232 ft | 396 kts | 294° |
| 2026-04-22 13:40 | 49.94503 | 1.67001 | 36239 ft | 396 kts | 294° |
| 2026-04-22 13:40 | 49.96589 | 1.59095 | 36251 ft | 396 kts | 294° |
| 2026-04-22 13:41 | 49.99216 | 1.51622 | 36253 ft | 394 kts | 308° |
| 2026-04-22 13:41 | 50.03016 | 1.45520 | 36253 ft | 394 kts | 319° |
| 2026-04-22 13:42 | 50.07173 | 1.39950 | 36241 ft | 394 kts | 319° |
| 2026-04-22 13:42 | 50.11317 | 1.34372 | 36238 ft | 394 kts | 318° |
| 2026-04-22 13:43 | 50.15447 | 1.28749 | 36243 ft | 394 kts | 318° |
| 2026-04-22 13:43 | 50.19574 | 1.23098 | 36265 ft | 395 kts | 318° |
| 2026-04-22 13:44 | 50.23679 | 1.17461 | 35892 ft | 388 kts | 318° |
| 2026-04-22 13:44 | 50.25692 | 1.14692 | 35496 ft | 383 kts | 318° |
| 2026-04-22 13:44 | 50.27674 | 1.11963 | 35172 ft | 378 kts | 318° |
| 2026-04-22 13:45 | 50.29614 | 1.09287 | 34792 ft | 375 kts | 318° |
| 2026-04-22 13:45 | 50.31555 | 1.06607 | 34434 ft | 371 kts | 318° |
| 2026-04-22 13:45 | 50.33484 | 1.03940 | 34027 ft | 368 kts | 318° |
| 2026-04-22 13:45 | 50.35395 | 1.01295 | 33621 ft | 364 kts | 318° |
| 2026-04-22 13:46 | 50.37277 | 0.98686 | 33257 ft | 360 kts | 318° |
| 2026-04-22 13:46 | 50.39144 | 0.96095 | 32887 ft | 356 kts | 318° |
| 2026-04-22 13:46 | 50.40984 | 0.93541 | 32523 ft | 353 kts | 318° |
| 2026-04-22 13:46 | 50.42815 | 0.90998 | 32146 ft | 349 kts | 318° |
| 2026-04-22 13:47 | 50.44622 | 0.88487 | 31804 ft | 346 kts | 319° |
| 2026-04-22 13:47 | 50.46438 | 0.86032 | 31482 ft | 342 kts | 320° |
| 2026-04-22 13:47 | 50.48254 | 0.83626 | 31129 ft | 340 kts | 320° |
| 2026-04-22 13:47 | 50.50050 | 0.81247 | 30789 ft | 337 kts | 320° |
| 2026-04-22 13:48 | 50.51837 | 0.78871 | 30456 ft | 335 kts | 320° |
| 2026-04-22 13:48 | 50.53605 | 0.76513 | 30072 ft | 332 kts | 320° |
| 2026-04-22 13:48 | 50.55361 | 0.74168 | 29699 ft | 329 kts | 320° |
| 2026-04-22 13:48 | 50.57097 | 0.71858 | 29353 ft | 325 kts | 320° |
| 2026-04-22 13:49 | 50.58811 | 0.69579 | 29019 ft | 321 kts | 320° |
| 2026-04-22 13:49 | 50.60513 | 0.67314 | 28656 ft | 319 kts | 320° |
| 2026-04-22 13:49 | 50.62200 | 0.65064 | 28314 ft | 316 kts | 320° |
| 2026-04-22 13:49 | 50.63863 | 0.62843 | 27980 ft | 313 kts | 320° |
| 2026-04-22 13:50 | 50.65522 | 0.60624 | 27639 ft | 312 kts | 321° |
| 2026-04-22 13:50 | 50.67174 | 0.58413 | 27302 ft | 312 kts | 321° |
| 2026-04-22 13:50 | 50.68852 | 0.56165 | 26974 ft | 321 kts | 321° |
| 2026-04-22 13:50 | 50.70578 | 0.53850 | 26622 ft | 329 kts | 321° |
| 2026-04-22 13:51 | 50.72316 | 0.51513 | 26257 ft | 328 kts | 321° |
| 2026-04-22 13:51 | 50.74047 | 0.49184 | 25897 ft | 325 kts | 321° |
| 2026-04-22 13:51 | 50.75760 | 0.46878 | 25550 ft | 323 kts | 321° |
| 2026-04-22 13:51 | 50.77460 | 0.44588 | 25189 ft | 321 kts | 321° |
| 2026-04-22 13:52 | 50.79153 | 0.42308 | 24859 ft | 318 kts | 321° |
| 2026-04-22 13:52 | 50.80834 | 0.40040 | 24524 ft | 317 kts | 321° |
| 2026-04-22 13:52 | 50.82500 | 0.37789 | 24210 ft | 315 kts | 321° |
| 2026-04-22 13:52 | 50.84163 | 0.35539 | 23897 ft | 313 kts | 321° |
| 2026-04-22 13:53 | 50.85813 | 0.33304 | 23530 ft | 312 kts | 321° |
| 2026-04-22 13:53 | 50.87457 | 0.31073 | 23183 ft | 310 kts | 321° |
| 2026-04-22 13:53 | 50.89077 | 0.28871 | 22889 ft | 306 kts | 321° |
| 2026-04-22 13:53 | 50.90669 | 0.26706 | 22593 ft | 303 kts | 322° |
| 2026-04-22 13:54 | 50.92281 | 0.24514 | 22266 ft | 302 kts | 321° |
| 2026-04-22 13:54 | 50.93852 | 0.22368 | 21965 ft | 301 kts | 322° |
| 2026-04-22 13:54 | 50.95441 | 0.20200 | 21649 ft | 303 kts | 321° |
| 2026-04-22 13:54 | 50.97047 | 0.18012 | 21320 ft | 306 kts | 321° |
| 2026-04-22 13:55 | 50.98691 | 0.15769 | 21019 ft | 318 kts | 322° |
| 2026-04-22 13:55 | 51.00378 | 0.13464 | 20674 ft | 321 kts | 321° |
| 2026-04-22 13:55 | 51.02074 | 0.11182 | 20314 ft | 319 kts | 324° |
| 2026-04-22 13:55 | 51.03868 | 0.09080 | 19949 ft | 320 kts | 327° |
| 2026-04-22 13:56 | 51.05708 | 0.07071 | 19588 ft | 323 kts | 328° |
| 2026-04-22 13:56 | 51.07585 | 0.05047 | 19230 ft | 327 kts | 327° |
| 2026-04-22 13:56 | 51.09477 | 0.02996 | 18846 ft | 331 kts | 327° |
| 2026-04-22 13:56 | 51.11384 | 0.00917 | 18421 ft | 334 kts | 327° |
| 2026-04-22 13:57 | 51.13298 | -0.01184 | 17905 ft | 334 kts | 327° |
| 2026-04-22 13:57 | 51.15205 | -0.03291 | 17504 ft | 332 kts | 327° |
| 2026-04-22 13:57 | 51.17097 | -0.05388 | 17103 ft | 331 kts | 327° |
| 2026-04-22 13:57 | 51.18988 | -0.07487 | 16725 ft | 330 kts | 327° |
| 2026-04-22 13:58 | 51.20868 | -0.09577 | 16356 ft | 329 kts | 327° |
| 2026-04-22 13:58 | 51.22737 | -0.11658 | 16004 ft | 327 kts | 327° |
| 2026-04-22 13:58 | 51.24600 | -0.13737 | 15631 ft | 327 kts | 327° |
| 2026-04-22 13:58 | 51.26461 | -0.15815 | 15250 ft | 326 kts | 327° |
| 2026-04-22 13:59 | 51.28320 | -0.17896 | 14881 ft | 327 kts | 326° |
| 2026-04-22 13:59 | 51.30186 | -0.19984 | 14513 ft | 328 kts | 327° |
| 2026-04-22 13:59 | 51.32059 | -0.22081 | 14135 ft | 328 kts | 327° |
| 2026-04-22 13:59 | 51.33929 | -0.24179 | 13752 ft | 328 kts | 327° |
| 2026-04-22 14:00 | 51.35796 | -0.26277 | 13338 ft | 328 kts | 327° |
| 2026-04-22 14:00 | 51.37661 | -0.28373 | 12962 ft | 327 kts | 326° |
| 2026-04-22 14:00 | 51.39519 | -0.30463 | 12580 ft | 327 kts | 326° |
| 2026-04-22 14:00 | 51.41378 | -0.32555 | 12208 ft | 326 kts | 326° |
| 2026-04-22 14:01 | 51.43230 | -0.34641 | 11844 ft | 325 kts | 327° |
| 2026-04-22 14:01 | 51.45104 | -0.36667 | 11478 ft | 324 kts | 329° |
| 2026-04-22 14:01 | 51.47017 | -0.38599 | 11111 ft | 324 kts | 330° |
| 2026-04-22 14:01 | 51.48933 | -0.40504 | 10738 ft | 324 kts | 330° |
| 2026-04-22 14:02 | 51.50846 | -0.42411 | 10380 ft | 324 kts | 330° |
| 2026-04-22 14:02 | 51.52740 | -0.44310 | 10247 ft | 315 kts | 330° |
| 2026-04-22 14:02 | 51.54608 | -0.46191 | 9635 ft | 318 kts | 330° |
| 2026-04-22 14:02 | 51.56454 | -0.48059 | 9254 ft | 310 kts | 330° |
| 2026-04-22 14:03 | 51.58260 | -0.49893 | 8874 ft | 303 kts | 330° |
| 2026-04-22 14:03 | 51.60011 | -0.51676 | 8516 ft | 296 kts | 330° |
| 2026-04-22 14:03 | 51.61732 | -0.53429 | 8187 ft | 289 kts | 330° |
| 2026-04-22 14:03 | 51.63416 | -0.55146 | 7764 ft | 287 kts | 330° |
| 2026-04-22 14:04 | 51.65122 | -0.56885 | 7235 ft | 289 kts | 330° |
| 2026-04-22 14:04 | 51.66810 | -0.58610 | 6856 ft | 285 kts | 331° |
| 2026-04-22 14:04 | 51.68471 | -0.60312 | 6490 ft | 280 kts | 331° |
| 2026-04-22 14:04 | 51.70098 | -0.61978 | 6144 ft | 275 kts | 331° |
| 2026-04-22 14:05 | 51.71696 | -0.63612 | 5810 ft | 269 kts | 331° |
| 2026-04-22 14:05 | 51.73257 | -0.65213 | 5524 ft | 264 kts | 332° |
| 2026-04-22 14:05 | 51.76313 | -0.68348 | 4910 ft | 256 kts | 332° |
| 2026-04-22 14:06 | 51.77800 | -0.69800 | 4612 ft | 248 kts | 342° |
| 2026-04-22 14:06 | 51.79408 | -0.70188 | 4381 ft | 219 kts | 18° |
| 2026-04-22 14:06 | 51.80728 | -0.69336 | 4122 ft | 194 kts | 41° |
| 2026-04-22 14:06 | 51.81675 | -0.67956 | 3918 ft | 176 kts | 56° |
| 2026-04-22 14:07 | 51.82214 | -0.66284 | 3713 ft | 164 kts | 74° |
| 2026-04-22 14:07 | 51.82613 | -0.64589 | 3536 ft | 161 kts | 72° |
| 2026-04-22 14:07 | 51.82973 | -0.62889 | 3354 ft | 162 kts | 75° |
| 2026-04-22 14:07 | 51.83300 | -0.61109 | 3169 ft | 163 kts | 76° |
| 2026-04-22 14:08 | 51.83603 | -0.59360 | 2990 ft | 162 kts | 77° |
| 2026-04-22 14:08 | 51.83904 | -0.57598 | 2803 ft | 163 kts | 76° |
| 2026-04-22 14:08 | 51.84199 | -0.55874 | 2570 ft | 154 kts | 77° |
| 2026-04-22 14:08 | 51.84468 | -0.54305 | 2440 ft | 143 kts | 77° |
| 2026-04-22 14:09 | 51.84737 | -0.52720 | 2292 ft | 148 kts | 77° |
| 2026-04-22 14:09 | 51.85006 | -0.51145 | 2198 ft | 140 kts | 76° |
| 2026-04-22 14:09 | 51.85254 | -0.49689 | 2018 ft | 130 kts | 77° |
| 2026-04-22 14:09 | 51.85496 | -0.48283 | 1852 ft | 127 kts | 77° |
| 2026-04-22 14:10 | 51.85731 | -0.46919 | 1682 ft | 126 kts | 78° |
| 2026-04-22 14:10 | 51.85972 | -0.45508 | 1487 ft | 131 kts | 77° |
| 2026-04-22 14:10 | 51.86212 | -0.44106 | 1296 ft | 127 kts | 78° |
| 2026-04-22 14:10 | 51.86439 | -0.42765 | 1090 ft | 121 kts | 76° |
| 2026-04-22 14:11 | 51.86663 | -0.41474 | 919 ft | 121 kts | 74° |
| 2026-04-22 14:11 | 51.86899 | -0.40121 | 795 ft | 131 kts | 74° |
| 2026-04-22 14:11 | 51.87146 | -0.38720 | 594 ft | 128 kts | 75° |
| 2026-04-22 14:11 | 51.87359 | -0.37398 | 522 ft | 110 kts | 71° |
| 2026-04-22 14:12 | 51.87519 | -0.36510 | 523 ft | 56 kts | 74° |
| 2026-04-22 14:12 | 51.87606 | -0.36015 | 515 ft | 14 kts | 74° |
| 2026-04-22 14:12 | 51.87659 | -0.35921 | 515 ft | 12 kts | 2° |
| 2026-04-22 14:12 | 51.87741 | -0.35957 | 515 ft | 12 kts | 332° |
| 2026-04-22 14:13 | 51.87780 | -0.36067 | 517 ft | 12 kts | 268° |
| 2026-04-22 14:13 | 51.87763 | -0.36195 | 517 ft | 11 kts | 255° |
| 2026-04-22 14:13 | 51.87741 | -0.36322 | 517 ft | 13 kts | 256° |
| 2026-04-22 14:13 | 51.87714 | -0.36481 | 519 ft | 16 kts | 253° |
| 2026-04-22 14:14 | 51.87681 | -0.36669 | 521 ft | 18 kts | 254° |
| 2026-04-22 14:14 | 51.87648 | -0.36861 | 524 ft | 17 kts | 254° |
| 2026-04-22 14:14 | 51.87615 | -0.37057 | 521 ft | 19 kts | 255° |
| 2026-04-22 14:14 | 51.87581 | -0.37259 | 521 ft | 18 kts | 255° |
| 2026-04-22 14:15 | 51.87615 | -0.37442 | 522 ft | 18 kts | 321° |
| 2026-04-22 14:15 | 51.87703 | -0.37582 | 518 ft | 19 kts | 297° |
| 2026-04-22 14:15 | 51.87759 | -0.37775 | 522 ft | 19 kts | 296° |
| 2026-04-22 14:15 | 51.87821 | -0.37955 | 522 ft | 18 kts | 311° |
| 2026-04-22 14:16 | 51.87934 | -0.38009 | 522 ft | 17 kts | 9° |
| 2026-04-22 14:16 | 51.88028 | -0.37921 | 522 ft | 11 kts | 39° |
| 2026-04-22 14:16 | 51.88072 | -0.37865 | 522 ft | 8 kts | 37° |
| 2026-04-22 14:16 | 51.88103 | -0.37826 | 522 ft | 1 kts | 42° |
| 2026-04-22 14:17 | 51.88108 | -0.37810 | 522 ft | 2 kts | 72° |
| 2026-04-22 14:17 | 51.88107 | -0.37797 | 522 ft | 1 kts | 99° |
| 2026-04-22 14:17 | 51.88099 | -0.37779 | 522 ft | 3 kts | 132° |
| 2026-04-22 14:17 | 51.88088 | -0.37760 | 522 ft | 1 kts | 129° |
| 2026-04-22 14:18 | 51.88084 | -0.37751 | 522 ft | 1 kts | 129° |
| 2026-04-22 14:18 | 51.88083 | -0.37749 | 522 ft | 0 kts | 129° |